RJOO/ITM METAR and TAF weather

Enter ICAO airport designator
Station Type Date Time Source
RJOO METAR 2019/06/16 11:00 UTC NOAA

RJOO 161100Z 32011KT 9999 FEW020 SCT/// 20/13 Q1007


Station Type Date Time Source
RJOO Decoded METAR 2019/06/16 11:00 UTC NOAA

Osaka International Airport, Japan (RJOO) 34-47N 135-27E 15M
Jun 16, 2019 - 07:00 AM EDT / 2019.06.16 1100 UTC
Wind: from the NW (320 degrees) at 13 MPH (11 KT):0
Visibility: greater than 7 mile(s):0
Sky conditions: partly cloudy
Temperature: 68 F (20 C)
Dew Point: 55 F (13 C)
Relative Humidity: 64%
Pressure (altimeter): 29.74 in. Hg (1007 hPa)
ob: RJOO 161100Z 32011KT 9999 FEW020 SCT/// 20/13 Q1007
cycle: 11

Station Type Date Time Source
RJOO TAF 2019/06/16 12:30 UTC NOAA

TAF RJOO 161107Z 1612/1718 32008KT 9999 FEW020 SCT045
BECMG 1703/1706 22006KT
BECMG 1709/1712 32005KT

Example: see airport list